YOO weather

Toronto/Oshawa Executive Airport
Oshawa, Ontario, Canada

Public forecast

Using degrees Celsius for public forecast. Weather courtesy of forecast.io.

METAR (pilot weather report)

Retrieved 2018/11/16 15:00 UTC (59 minutes ago):

CYOO 161500Z AUTO 24005KT 1 1/4SM -SN OVC003 00/ A2969 RMK TD MISG SLP061

TAF (pilot weather forecast)

Closest forecast is Buttonville Municipal Airport, 20.9 nm (38.7 km) W. Retrieved 2018/11/16 12:42 UTC (3 hours ago):

TAF CYKZ 161139Z 1612/1624 14005KT 11/4SM -SN OVC003 TEMPO 1612/1613 3SM -SNRA BR SCT003 OVC010 FM161300 24007KT 21/2SM -SNRA BR BKN005 OVC012 TEMPO 1613/1620 6SM BR SCT005 OVC012 BECMG 1615/1616 24010G20KT FM162000 25012G22KT P6SM BKN025 OVC050 TEMPO 1620/1624 3SM -SHRASN BR OVC020 BECMG 1623/1624 25010KT RMK NXT FCST BY 161800Z